sensor_id;sensor_type;location;lat;lon;timestamp;P1;durP1;ratioP1;P2;durP2;ratioP2
33644;SDS011;19986;48.190;16.366;2022-10-19T00:01:48;45.85;;;42.83;;
33644;SDS011;19986;48.190;16.366;2022-10-19T00:04:14;43.00;;;40.00;;
33644;SDS011;19986;48.190;16.366;2022-10-19T00:06:39;44.22;;;41.42;;
33644;SDS011;19986;48.190;16.366;2022-10-19T00:09:06;46.78;;;43.70;;
33644;SDS011;19986;48.190;16.366;2022-10-19T00:11:34;44.25;;;41.20;;
33644;SDS011;19986;48.190;16.366;2022-10-19T00:14:03;46.28;;;43.17;;
33644;SDS011;19986;48.190;16.366;2022-10-19T00:16:30;45.88;;;42.83;;
33644;SDS011;19986;48.190;16.366;2022-10-19T00:18:59;44.13;;;41.25;;
33644;SDS011;19986;48.190;16.366;2022-10-19T00:21:27;47.35;;;43.88;;
33644;SDS011;19986;48.190;16.366;2022-10-19T00:23:53;47.42;;;44.13;;
33644;SDS011;19986;48.190;16.366;2022-10-19T00:26:19;46.03;;;42.80;;
33644;SDS011;19986;48.190;16.366;2022-10-19T00:28:45;47.33;;;44.13;;
33644;SDS011;19986;48.190;16.366;2022-10-19T00:31:11;45.75;;;42.50;;
33644;SDS011;19986;48.190;16.366;2022-10-19T00:33:39;47.50;;;44.40;;
33644;SDS011;19986;48.190;16.366;2022-10-19T00:36:11;46.88;;;43.58;;
33644;SDS011;19986;48.190;16.366;2022-10-19T00:38:40;49.35;;;46.03;;
33644;SDS011;19986;48.190;16.366;2022-10-19T00:41:06;46.92;;;43.63;;
33644;SDS011;19986;48.190;16.366;2022-10-19T00:43:48;48.20;;;44.88;;
33644;SDS011;19986;48.190;16.366;2022-10-19T00:46:16;45.85;;;42.60;;
33644;SDS011;19986;48.190;16.366;2022-10-19T00:48:42;46.70;;;43.33;;
33644;SDS011;19986;48.190;16.366;2022-10-19T00:51:08;47.00;;;43.30;;
33644;SDS011;19986;48.190;16.366;2022-10-19T00:53:34;45.38;;;42.40;;
33644;SDS011;19986;48.190;16.366;2022-10-19T00:56:01;45.65;;;42.75;;
33644;SDS011;19986;48.190;16.366;2022-10-19T00:58:30;44.25;;;41.35;;
33644;SDS011;19986;48.190;16.366;2022-10-19T01:00:58;45.80;;;42.58;;
33644;SDS011;19986;48.190;16.366;2022-10-19T01:03:26;43.83;;;40.78;;
33644;SDS011;19986;48.190;16.366;2022-10-19T01:05:52;44.88;;;41.90;;
33644;SDS011;19986;48.190;16.366;2022-10-19T01:08:18;46.03;;;43.05;;
33644;SDS011;19986;48.190;16.366;2022-10-19T01:14:20;47.28;;;44.00;;
33644;SDS011;19986;48.190;16.366;2022-10-19T01:22:54;46.40;;;43.33;;
33644;SDS011;19986;48.190;16.366;2022-10-19T01:33:40;45.03;;;42.13;;
33644;SDS011;19986;48.190;16.366;2022-10-19T01:38:58;43.10;;;40.35;;
33644;SDS011;19986;48.190;16.366;2022-10-19T01:42:02;40.88;;;38.17;;
33644;SDS011;19986;48.190;16.366;2022-10-19T01:44:41;42.50;;;40.00;;
33644;SDS011;19986;48.190;16.366;2022-10-19T01:47:17;41.72;;;39.08;;
33644;SDS011;19986;48.190;16.366;2022-10-19T01:49:52;42.38;;;39.67;;
33644;SDS011;19986;48.190;16.366;2022-10-19T01:52:22;41.85;;;39.15;;
33644;SDS011;19986;48.190;16.366;2022-10-19T01:54:52;43.33;;;40.38;;
33644;SDS011;19986;48.190;16.366;2022-10-19T01:57:22;41.75;;;39.25;;
33644;SDS011;19986;48.190;16.366;2022-10-19T01:59:52;40.97;;;38.47;;
33644;SDS011;19986;48.190;16.366;2022-10-19T02:02:19;41.58;;;39.03;;
33644;SDS011;19986;48.190;16.366;2022-10-19T02:04:47;41.60;;;39.13;;
33644;SDS011;19986;48.190;16.366;2022-10-19T02:07:15;42.58;;;39.97;;
33644;SDS011;19986;48.190;16.366;2022-10-19T02:09:43;40.38;;;38.08;;
33644;SDS011;19986;48.190;16.366;2022-10-19T02:12:09;42.33;;;39.85;;
33644;SDS011;19986;48.190;16.366;2022-10-19T02:14:38;41.97;;;39.35;;
33644;SDS011;19986;48.190;16.366;2022-10-19T02:17:13;40.92;;;38.50;;
33644;SDS011;19986;48.190;16.366;2022-10-19T02:19:42;41.08;;;38.47;;
33644;SDS011;19986;48.190;16.366;2022-10-19T02:22:09;40.00;;;37.58;;
33644;SDS011;19986;48.190;16.366;2022-10-19T02:24:36;38.88;;;36.47;;
33644;SDS011;19986;48.190;16.366;2022-10-19T02:27:04;39.92;;;37.35;;
33644;SDS011;19986;48.190;16.366;2022-10-19T02:29:32;42.05;;;39.55;;
33644;SDS011;19986;48.190;16.366;2022-10-19T02:31:59;41.22;;;38.88;;
33644;SDS011;19986;48.190;16.366;2022-10-19T02:34:26;38.97;;;36.58;;
33644;SDS011;19986;48.190;16.366;2022-10-19T02:36:52;39.35;;;36.95;;
33644;SDS011;19986;48.190;16.366;2022-10-19T02:39:19;39.33;;;36.92;;
33644;SDS011;19986;48.190;16.366;2022-10-19T02:42:18;38.50;;;36.20;;
33644;SDS011;19986;48.190;16.366;2022-10-19T02:47:11;40.40;;;38.03;;
33644;SDS011;19986;48.190;16.366;2022-10-19T02:49:42;39.40;;;37.08;;
33644;SDS011;19986;48.190;16.366;2022-10-19T02:52:10;38.90;;;36.50;;
33644;SDS011;19986;48.190;16.366;2022-10-19T02:54:38;39.67;;;37.38;;
33644;SDS011;19986;48.190;16.366;2022-10-19T02:57:15;37.28;;;35.17;;
33644;SDS011;19986;48.190;16.366;2022-10-19T02:59:43;38.72;;;36.38;;
33644;SDS011;19986;48.190;16.366;2022-10-19T03:02:09;38.25;;;36.03;;
33644;SDS011;19986;48.190;16.366;2022-10-19T03:04:35;37.83;;;35.63;;
33644;SDS011;19986;48.190;16.366;2022-10-19T03:07:01;37.85;;;35.45;;
33644;SDS011;19986;48.190;16.366;2022-10-19T03:09:27;39.97;;;37.67;;
33644;SDS011;19986;48.190;16.366;2022-10-19T03:11:54;39.92;;;37.35;;
33644;SDS011;19986;48.190;16.366;2022-10-19T03:14:20;38.20;;;36.10;;
33644;SDS011;19986;48.190;16.366;2022-10-19T03:16:46;39.20;;;36.90;;
33644;SDS011;19986;48.190;16.366;2022-10-19T03:19:12;39.40;;;37.20;;
33644;SDS011;19986;48.190;16.366;2022-10-19T03:21:38;39.35;;;37.05;;
33644;SDS011;19986;48.190;16.366;2022-10-19T03:24:04;38.25;;;36.13;;
33644;SDS011;19986;48.190;16.366;2022-10-19T03:26:30;39.83;;;37.35;;
33644;SDS011;19986;48.190;16.366;2022-10-19T03:28:56;41.10;;;38.80;;
33644;SDS011;19986;48.190;16.366;2022-10-19T03:31:21;38.28;;;36.15;;
33644;SDS011;19986;48.190;16.366;2022-10-19T03:33:47;39.78;;;37.58;;
33644;SDS011;19986;48.190;16.366;2022-10-19T03:36:19;37.45;;;35.17;;
33644;SDS011;19986;48.190;16.366;2022-10-19T03:38:53;38.83;;;36.45;;
33644;SDS011;19986;48.190;16.366;2022-10-19T03:41:30;39.72;;;37.17;;
33644;SDS011;19986;48.190;16.366;2022-10-19T03:43:57;40.10;;;37.80;;
33644;SDS011;19986;48.190;16.366;2022-10-19T03:46:24;39.08;;;36.78;;
33644;SDS011;19986;48.190;16.366;2022-10-19T03:48:50;39.13;;;37.00;;
33644;SDS011;19986;48.190;16.366;2022-10-19T03:51:21;38.10;;;35.88;;
33644;SDS011;19986;48.190;16.366;2022-10-19T03:53:56;38.20;;;35.88;;
33644;SDS011;19986;48.190;16.366;2022-10-19T03:56:26;39.38;;;37.17;;
33644;SDS011;19986;48.190;16.366;2022-10-19T03:58:54;38.97;;;36.80;;
33644;SDS011;19986;48.190;16.366;2022-10-19T04:01:25;38.95;;;36.55;;
33644;SDS011;19986;48.190;16.366;2022-10-19T04:03:55;39.60;;;37.38;;
33644;SDS011;19986;48.190;16.366;2022-10-19T04:06:23;40.75;;;38.55;;
33644;SDS011;19986;48.190;16.366;2022-10-19T04:08:51;37.15;;;35.03;;
33644;SDS011;19986;48.190;16.366;2022-10-19T04:11:22;37.88;;;35.75;;
33644;SDS011;19986;48.190;16.366;2022-10-19T04:13:50;39.90;;;37.60;;
33644;SDS011;19986;48.190;16.366;2022-10-19T04:16:17;38.22;;;36.00;;
33644;SDS011;19986;48.190;16.366;2022-10-19T04:18:45;39.42;;;37.22;;
33644;SDS011;19986;48.190;16.366;2022-10-19T04:21:21;39.03;;;36.60;;
33644;SDS011;19986;48.190;16.366;2022-10-19T04:23:50;39.50;;;37.13;;
33644;SDS011;19986;48.190;16.366;2022-10-19T04:26:17;38.55;;;36.35;;
33644;SDS011;19986;48.190;16.366;2022-10-19T04:28:44;38.80;;;36.50;;
33644;SDS011;19986;48.190;16.366;2022-10-19T04:31:10;37.78;;;35.67;;
33644;SDS011;19986;48.190;16.366;2022-10-19T04:33:37;39.92;;;37.63;;
33644;SDS011;19986;48.190;16.366;2022-10-19T04:36:04;40.97;;;38.53;;
33644;SDS011;19986;48.190;16.366;2022-10-19T04:38:32;39.97;;;37.58;;
33644;SDS011;19986;48.190;16.366;2022-10-19T04:41:05;41.05;;;38.80;;
33644;SDS011;19986;48.190;16.366;2022-10-19T04:43:33;37.67;;;35.53;;
33644;SDS011;19986;48.190;16.366;2022-10-19T04:46:03;38.40;;;36.10;;
33644;SDS011;19986;48.190;16.366;2022-10-19T04:48:40;38.25;;;36.05;;
33644;SDS011;19986;48.190;16.366;2022-10-19T04:51:06;40.67;;;38.33;;
33644;SDS011;19986;48.190;16.366;2022-10-19T04:53:32;40.20;;;37.70;;
33644;SDS011;19986;48.190;16.366;2022-10-19T04:55:59;42.83;;;40.00;;
33644;SDS011;19986;48.190;16.366;2022-10-19T04:58:29;39.78;;;37.33;;
33644;SDS011;19986;48.190;16.366;2022-10-19T05:00:55;40.65;;;37.85;;
33644;SDS011;19986;48.190;16.366;2022-10-19T05:03:21;36.97;;;34.88;;
33644;SDS011;19986;48.190;16.366;2022-10-19T05:05:47;37.80;;;35.55;;
33644;SDS011;19986;48.190;16.366;2022-10-19T05:08:13;37.75;;;35.28;;
33644;SDS011;19986;48.190;16.366;2022-10-19T05:10:39;36.55;;;34.30;;
33644;SDS011;19986;48.190;16.366;2022-10-19T05:13:05;37.08;;;34.95;;
33644;SDS011;19986;48.190;16.366;2022-10-19T05:15:30;40.97;;;38.58;;
33644;SDS011;19986;48.190;16.366;2022-10-19T05:17:56;38.00;;;35.80;;
33644;SDS011;19986;48.190;16.366;2022-10-19T05:20:22;40.17;;;37.50;;
33644;SDS011;19986;48.190;16.366;2022-10-19T05:22:48;39.85;;;37.65;;
33644;SDS011;19986;48.190;16.366;2022-10-19T05:25:14;41.15;;;38.20;;
33644;SDS011;19986;48.190;16.366;2022-10-19T05:27:41;38.55;;;36.30;;
33644;SDS011;19986;48.190;16.366;2022-10-19T05:30:07;40.50;;;37.90;;
33644;SDS011;19986;48.190;16.366;2022-10-19T05:32:33;38.22;;;35.88;;
33644;SDS011;19986;48.190;16.366;2022-10-19T05:34:59;40.53;;;37.58;;
33644;SDS011;19986;48.190;16.366;2022-10-19T05:37:25;39.35;;;36.47;;
33644;SDS011;19986;48.190;16.366;2022-10-19T05:39:51;40.35;;;37.85;;
33644;SDS011;19986;48.190;16.366;2022-10-19T05:42:18;37.53;;;35.20;;
33644;SDS011;19986;48.190;16.366;2022-10-19T05:44:44;40.55;;;38.17;;
33644;SDS011;19986;48.190;16.366;2022-10-19T05:47:10;39.97;;;37.67;;
33644;SDS011;19986;48.190;16.366;2022-10-19T05:49:36;39.95;;;37.22;;
33644;SDS011;19986;48.190;16.366;2022-10-19T05:52:02;37.67;;;35.42;;
33644;SDS011;19986;48.190;16.366;2022-10-19T05:54:28;40.70;;;37.90;;
33644;SDS011;19986;48.190;16.366;2022-10-19T05:56:54;39.30;;;36.92;;
33644;SDS011;19986;48.190;16.366;2022-10-19T05:59:20;42.35;;;39.65;;
33644;SDS011;19986;48.190;16.366;2022-10-19T06:01:46;42.15;;;39.38;;
33644;SDS011;19986;48.190;16.366;2022-10-19T06:04:13;42.05;;;38.75;;
33644;SDS011;19986;48.190;16.366;2022-10-19T06:06:39;40.00;;;36.95;;
33644;SDS011;19986;48.190;16.366;2022-10-19T06:09:08;38.47;;;36.08;;
33644;SDS011;19986;48.190;16.366;2022-10-19T06:11:36;38.35;;;36.00;;
33644;SDS011;19986;48.190;16.366;2022-10-19T06:14:04;40.28;;;37.85;;
33644;SDS011;19986;48.190;16.366;2022-10-19T06:16:32;38.47;;;35.90;;
33644;SDS011;19986;48.190;16.366;2022-10-19T06:18:59;40.38;;;37.85;;
33644;SDS011;19986;48.190;16.366;2022-10-19T06:21:26;39.22;;;37.00;;
33644;SDS011;19986;48.190;16.366;2022-10-19T06:23:54;37.58;;;35.42;;
33644;SDS011;19986;48.190;16.366;2022-10-19T06:26:22;38.60;;;36.25;;
33644;SDS011;19986;48.190;16.366;2022-10-19T06:28:48;39.17;;;36.97;;
33644;SDS011;19986;48.190;16.366;2022-10-19T06:31:14;37.22;;;35.05;;
33644;SDS011;19986;48.190;16.366;2022-10-19T06:33:42;36.80;;;34.53;;
33644;SDS011;19986;48.190;16.366;2022-10-19T06:36:10;37.97;;;35.55;;
33644;SDS011;19986;48.190;16.366;2022-10-19T06:38:38;36.80;;;34.80;;
33644;SDS011;19986;48.190;16.366;2022-10-19T06:41:04;39.97;;;37.50;;
33644;SDS011;19986;48.190;16.366;2022-10-19T06:43:31;39.35;;;37.13;;
33644;SDS011;19986;48.190;16.366;2022-10-19T06:45:57;38.03;;;35.80;;
33644;SDS011;19986;48.190;16.366;2022-10-19T06:48:27;36.90;;;34.70;;
33644;SDS011;19986;48.190;16.366;2022-10-19T06:50:57;37.72;;;35.40;;
33644;SDS011;19986;48.190;16.366;2022-10-19T06:53:25;37.15;;;35.20;;
33644;SDS011;19986;48.190;16.366;2022-10-19T06:55:52;38.08;;;35.40;;
33644;SDS011;19986;48.190;16.366;2022-10-19T06:58:18;39.78;;;37.67;;
33644;SDS011;19986;48.190;16.366;2022-10-19T07:00:45;37.30;;;35.28;;
33644;SDS011;19986;48.190;16.366;2022-10-19T07:03:18;38.42;;;36.13;;
33644;SDS011;19986;48.190;16.366;2022-10-19T07:05:53;38.67;;;36.03;;
33644;SDS011;19986;48.190;16.366;2022-10-19T07:08:19;37.13;;;35.13;;
33644;SDS011;19986;48.190;16.366;2022-10-19T07:10:52;38.47;;;36.33;;
33644;SDS011;19986;48.190;16.366;2022-10-19T07:13:20;36.10;;;34.05;;
33644;SDS011;19986;48.190;16.366;2022-10-19T07:15:46;38.58;;;36.47;;
33644;SDS011;19986;48.190;16.366;2022-10-19T07:18:13;37.92;;;35.55;;
33644;SDS011;19986;48.190;16.366;2022-10-19T07:20:40;39.13;;;36.97;;
33644;SDS011;19986;48.190;16.366;2022-10-19T07:23:06;35.25;;;33.35;;
33644;SDS011;19986;48.190;16.366;2022-10-19T07:25:33;37.30;;;35.40;;
33644;SDS011;19986;48.190;16.366;2022-10-19T07:28:00;37.17;;;35.03;;
33644;SDS011;19986;48.190;16.366;2022-10-19T07:30:27;35.40;;;33.35;;
33644;SDS011;19986;48.190;16.366;2022-10-19T07:32:53;37.35;;;35.25;;
33644;SDS011;19986;48.190;16.366;2022-10-19T07:35:19;34.60;;;32.70;;
33644;SDS011;19986;48.190;16.366;2022-10-19T07:37:45;37.38;;;35.25;;
33644;SDS011;19986;48.190;16.366;2022-10-19T07:40:11;35.92;;;34.10;;
33644;SDS011;19986;48.190;16.366;2022-10-19T07:42:37;38.03;;;35.80;;
33644;SDS011;19986;48.190;16.366;2022-10-19T07:45:03;36.83;;;34.95;;
33644;SDS011;19986;48.190;16.366;2022-10-19T07:47:29;35.45;;;33.55;;
33644;SDS011;19986;48.190;16.366;2022-10-19T07:49:55;34.75;;;32.92;;
33644;SDS011;19986;48.190;16.366;2022-10-19T07:52:21;34.75;;;33.03;;
33644;SDS011;19986;48.190;16.366;2022-10-19T07:54:47;36.88;;;34.85;;
33644;SDS011;19986;48.190;16.366;2022-10-19T07:57:14;34.95;;;32.80;;
33644;SDS011;19986;48.190;16.366;2022-10-19T07:59:40;34.25;;;32.38;;
33644;SDS011;19986;48.190;16.366;2022-10-19T08:02:15;33.53;;;31.63;;
33644;SDS011;19986;48.190;16.366;2022-10-19T08:04:42;34.85;;;33.00;;
33644;SDS011;19986;48.190;16.366;2022-10-19T08:07:08;32.90;;;31.00;;
33644;SDS011;19986;48.190;16.366;2022-10-19T08:09:35;33.55;;;31.88;;
33644;SDS011;19986;48.190;16.366;2022-10-19T08:12:00;34.58;;;32.90;;
33644;SDS011;19986;48.190;16.366;2022-10-19T08:14:26;35.08;;;33.08;;
33644;SDS011;19986;48.190;16.366;2022-10-19T08:16:52;32.05;;;30.35;;
33644;SDS011;19986;48.190;16.366;2022-10-19T08:19:18;34.10;;;32.30;;
33644;SDS011;19986;48.190;16.366;2022-10-19T08:21:44;34.00;;;32.30;;
33644;SDS011;19986;48.190;16.366;2022-10-19T08:24:12;34.85;;;33.00;;
33644;SDS011;19986;48.190;16.366;2022-10-19T08:26:40;33.25;;;31.63;;
33644;SDS011;19986;48.190;16.366;2022-10-19T08:29:07;33.75;;;32.08;;
33644;SDS011;19986;48.190;16.366;2022-10-19T08:31:33;33.65;;;31.95;;
33644;SDS011;19986;48.190;16.366;2022-10-19T08:33:59;36.22;;;34.28;;
33644;SDS011;19986;48.190;16.366;2022-10-19T08:36:25;34.38;;;32.60;;
33644;SDS011;19986;48.190;16.366;2022-10-19T08:38:51;32.88;;;31.25;;
33644;SDS011;19986;48.190;16.366;2022-10-19T08:49:21;34.40;;;32.40;;
33644;SDS011;19986;48.190;16.366;2022-10-19T08:54:53;35.05;;;33.15;;
33644;SDS011;19986;48.190;16.366;2022-10-19T08:57:36;33.00;;;31.20;;
33644;SDS011;19986;48.190;16.366;2022-10-19T09:08:38;35.15;;;33.35;;
33644;SDS011;19986;48.190;16.366;2022-10-19T09:11:05;35.20;;;33.20;;
33644;SDS011;19986;48.190;16.366;2022-10-19T09:13:36;35.33;;;33.53;;
33644;SDS011;19986;48.190;16.366;2022-10-19T09:16:03;34.80;;;33.08;;
33644;SDS011;19986;48.190;16.366;2022-10-19T09:18:33;33.88;;;31.90;;
33644;SDS011;19986;48.190;16.366;2022-10-19T09:26:27;36.53;;;34.53;;
33644;SDS011;19986;48.190;16.366;2022-10-19T09:31:32;39.72;;;35.63;;
33644;SDS011;19986;48.190;16.366;2022-10-19T09:34:02;36.95;;;34.22;;
33644;SDS011;19986;48.190;16.366;2022-10-19T09:36:40;36.83;;;34.72;;
33644;SDS011;19986;48.190;16.366;2022-10-19T09:39:14;37.08;;;33.53;;
33644;SDS011;19986;48.190;16.366;2022-10-19T09:41:43;35.97;;;33.80;;
33644;SDS011;19986;48.190;16.366;2022-10-19T09:44:16;34.22;;;32.42;;
33644;SDS011;19986;48.190;16.366;2022-10-19T09:49:44;38.50;;;36.38;;
33644;SDS011;19986;48.190;16.366;2022-10-19T09:55:00;35.05;;;33.08;;
33644;SDS011;19986;48.190;16.366;2022-10-19T09:57:28;35.22;;;33.15;;
33644;SDS011;19986;48.190;16.366;2022-10-19T09:59:55;34.80;;;32.90;;
33644;SDS011;19986;48.190;16.366;2022-10-19T10:02:28;34.83;;;33.05;;
33644;SDS011;19986;48.190;16.366;2022-10-19T10:05:06;33.33;;;31.42;;
33644;SDS011;19986;48.190;16.366;2022-10-19T10:07:38;36.80;;;34.30;;
33644;SDS011;19986;48.190;16.366;2022-10-19T10:10:17;34.72;;;32.92;;
33644;SDS011;19986;48.190;16.366;2022-10-19T10:13:01;33.83;;;31.92;;
33644;SDS011;19986;48.190;16.366;2022-10-19T10:15:28;32.85;;;31.25;;
33644;SDS011;19986;48.190;16.366;2022-10-19T10:18:22;35.75;;;33.42;;
33644;SDS011;19986;48.190;16.366;2022-10-19T10:23:45;35.88;;;33.90;;
33644;SDS011;19986;48.190;16.366;2022-10-19T10:26:25;36.30;;;34.40;;
33644;SDS011;19986;48.190;16.366;2022-10-19T10:28:51;34.78;;;32.95;;
33644;SDS011;19986;48.190;16.366;2022-10-19T10:31:18;34.85;;;33.00;;
33644;SDS011;19986;48.190;16.366;2022-10-19T10:33:56;35.25;;;33.35;;
33644;SDS011;19986;48.190;16.366;2022-10-19T10:36:27;34.25;;;32.45;;
33644;SDS011;19986;48.190;16.366;2022-10-19T10:39:02;34.88;;;32.88;;
33644;SDS011;19986;48.190;16.366;2022-10-19T10:41:35;34.28;;;32.55;;
33644;SDS011;19986;48.190;16.366;2022-10-19T10:44:07;35.72;;;33.85;;
33644;SDS011;19986;48.190;16.366;2022-10-19T10:46:58;35.28;;;33.38;;
33644;SDS011;19986;48.190;16.366;2022-10-19T10:49:35;36.28;;;34.17;;
33644;SDS011;19986;48.190;16.366;2022-10-19T10:52:03;34.88;;;33.08;;
33644;SDS011;19986;48.190;16.366;2022-10-19T10:54:30;35.20;;;33.30;;
33644;SDS011;19986;48.190;16.366;2022-10-19T11:03:07;34.10;;;32.33;;
33644;SDS011;19986;48.190;16.366;2022-10-19T11:10:42;34.50;;;32.60;;
33644;SDS011;19986;48.190;16.366;2022-10-19T11:16:24;34.42;;;32.63;;
33644;SDS011;19986;48.190;16.366;2022-10-19T11:24:45;33.72;;;31.75;;
33644;SDS011;19986;48.190;16.366;2022-10-19T11:30:23;34.58;;;32.78;;
33644;SDS011;19986;48.190;16.366;2022-10-19T11:35:56;37.20;;;34.22;;
33644;SDS011;19986;48.190;16.366;2022-10-19T11:41:06;33.90;;;32.10;;
33644;SDS011;19986;48.190;16.366;2022-10-19T11:46:39;33.95;;;32.25;;
33644;SDS011;19986;48.190;16.366;2022-10-19T11:52:22;32.72;;;31.13;;
33644;SDS011;19986;48.190;16.366;2022-10-19T11:55:14;34.15;;;32.45;;
33644;SDS011;19986;48.190;16.366;2022-10-19T12:00:38;32.22;;;30.33;;
33644;SDS011;19986;48.190;16.366;2022-10-19T12:13:54;33.25;;;31.52;;
33644;SDS011;19986;48.190;16.366;2022-10-19T12:16:26;37.00;;;34.95;;
33644;SDS011;19986;48.190;16.366;2022-10-19T12:19:02;34.75;;;33.05;;
33644;SDS011;19986;48.190;16.366;2022-10-19T12:21:32;35.05;;;33.28;;
33644;SDS011;19986;48.190;16.366;2022-10-19T12:24:02;33.55;;;31.85;;
33644;SDS011;19986;48.190;16.366;2022-10-19T12:26:30;33.40;;;31.42;;
33644;SDS011;19986;48.190;16.366;2022-10-19T12:29:00;33.53;;;31.75;;
33644;SDS011;19986;48.190;16.366;2022-10-19T12:31:30;34.95;;;33.25;;
33644;SDS011;19986;48.190;16.366;2022-10-19T12:34:01;34.42;;;32.55;;
33644;SDS011;19986;48.190;16.366;2022-10-19T12:36:56;34.33;;;32.58;;
33644;SDS011;19986;48.190;16.366;2022-10-19T12:46:19;33.25;;;31.55;;
33644;SDS011;19986;48.190;16.366;2022-10-19T12:48:43;35.25;;;33.42;;
33644;SDS011;19986;48.190;16.366;2022-10-19T12:51:12;34.78;;;32.88;;
33644;SDS011;19986;48.190;16.366;2022-10-19T12:53:49;33.63;;;31.60;;
33644;SDS011;19986;48.190;16.366;2022-10-19T12:56:19;35.28;;;33.38;;
33644;SDS011;19986;48.190;16.366;2022-10-19T12:58:52;34.70;;;32.80;;
33644;SDS011;19986;48.190;16.366;2022-10-19T13:01:28;36.38;;;34.38;;
33644;SDS011;19986;48.190;16.366;2022-10-19T13:09:34;37.58;;;35.40;;
33644;SDS011;19986;48.190;16.366;2022-10-19T13:14:42;37.80;;;35.53;;
33644;SDS011;19986;48.190;16.366;2022-10-19T13:17:57;37.00;;;34.65;;
33644;SDS011;19986;48.190;16.366;2022-10-19T13:27:43;37.83;;;35.53;;
33644;SDS011;19986;48.190;16.366;2022-10-19T13:38:44;36.13;;;33.83;;
33644;SDS011;19986;48.190;16.366;2022-10-19T13:41:24;37.78;;;35.38;;
33644;SDS011;19986;48.190;16.366;2022-10-19T13:46:39;37.58;;;35.42;;
33644;SDS011;19986;48.190;16.366;2022-10-19T14:06:12;36.50;;;34.15;;
33644;SDS011;19986;48.190;16.366;2022-10-19T14:11:34;38.58;;;36.28;;
33644;SDS011;19986;48.190;16.366;2022-10-19T14:16:49;37.13;;;34.92;;
33644;SDS011;19986;48.190;16.366;2022-10-19T14:19:20;37.90;;;35.25;;
33644;SDS011;19986;48.190;16.366;2022-10-19T14:21:51;39.03;;;36.17;;
33644;SDS011;19986;48.190;16.366;2022-10-19T14:24:30;38.70;;;36.20;;
33644;SDS011;19986;48.190;16.366;2022-10-19T14:26:59;36.35;;;34.08;;
33644;SDS011;19986;48.190;16.366;2022-10-19T14:29:26;39.80;;;37.15;;
33644;SDS011;19986;48.190;16.366;2022-10-19T14:31:52;37.58;;;35.53;;
33644;SDS011;19986;48.190;16.366;2022-10-19T14:34:18;37.92;;;35.25;;
33644;SDS011;19986;48.190;16.366;2022-10-19T14:36:47;38.55;;;35.80;;
33644;SDS011;19986;48.190;16.366;2022-10-19T14:39:25;37.10;;;34.75;;
33644;SDS011;19986;48.190;16.366;2022-10-19T14:41:57;38.92;;;36.33;;
33644;SDS011;19986;48.190;16.366;2022-10-19T14:44:34;38.78;;;36.08;;
33644;SDS011;19986;48.190;16.366;2022-10-19T14:47:21;36.95;;;34.65;;
33644;SDS011;19986;48.190;16.366;2022-10-19T14:49:50;39.70;;;37.20;;
33644;SDS011;19986;48.190;16.366;2022-10-19T14:52:21;35.90;;;33.70;;
33644;SDS011;19986;48.190;16.366;2022-10-19T14:54:56;37.63;;;34.92;;
33644;SDS011;19986;48.190;16.366;2022-10-19T14:57:28;35.63;;;33.15;;
33644;SDS011;19986;48.190;16.366;2022-10-19T15:00:00;37.20;;;34.72;;
33644;SDS011;19986;48.190;16.366;2022-10-19T15:02:33;37.08;;;34.67;;
33644;SDS011;19986;48.190;16.366;2022-10-19T15:05:21;37.30;;;35.00;;
33644;SDS011;19986;48.190;16.366;2022-10-19T15:07:50;37.85;;;35.53;;
33644;SDS011;19986;48.190;16.366;2022-10-19T15:12:50;42.45;;;39.33;;
33644;SDS011;19986;48.190;16.366;2022-10-19T15:15:24;37.22;;;34.67;;
33644;SDS011;19986;48.190;16.366;2022-10-19T15:17:56;38.17;;;35.40;;
33644;SDS011;19986;48.190;16.366;2022-10-19T15:23:00;36.95;;;34.65;;
33644;SDS011;19986;48.190;16.366;2022-10-19T15:25:46;36.47;;;34.15;;
33644;SDS011;19986;48.190;16.366;2022-10-19T15:28:32;36.20;;;33.83;;
33644;SDS011;19986;48.190;16.366;2022-10-19T15:31:03;37.45;;;35.25;;
33644;SDS011;19986;48.190;16.366;2022-10-19T15:33:37;37.78;;;35.28;;
33644;SDS011;19986;48.190;16.366;2022-10-19T15:36:08;36.78;;;34.45;;
33644;SDS011;19986;48.190;16.366;2022-10-19T15:38:42;37.85;;;35.53;;
33644;SDS011;19986;48.190;16.366;2022-10-19T15:41:17;37.85;;;35.35;;
33644;SDS011;19986;48.190;16.366;2022-10-19T15:43:51;37.15;;;34.63;;
33644;SDS011;19986;48.190;16.366;2022-10-19T15:51:48;36.28;;;34.00;;
33644;SDS011;19986;48.190;16.366;2022-10-19T15:54:15;38.35;;;35.97;;
33644;SDS011;19986;48.190;16.366;2022-10-19T15:56:46;37.05;;;34.25;;
33644;SDS011;19986;48.190;16.366;2022-10-19T15:59:17;35.85;;;33.65;;
33644;SDS011;19986;48.190;16.366;2022-10-19T16:01:44;38.08;;;35.58;;
33644;SDS011;19986;48.190;16.366;2022-10-19T16:04:12;36.13;;;33.92;;
33644;SDS011;19986;48.190;16.366;2022-10-19T16:06:39;36.72;;;34.50;;
33644;SDS011;19986;48.190;16.366;2022-10-19T16:09:09;36.58;;;34.22;;
33644;SDS011;19986;48.190;16.366;2022-10-19T16:11:40;37.00;;;34.75;;
33644;SDS011;19986;48.190;16.366;2022-10-19T16:14:06;37.88;;;35.60;;
33644;SDS011;19986;48.190;16.366;2022-10-19T16:16:32;37.08;;;34.78;;
33644;SDS011;19986;48.190;16.366;2022-10-19T16:18:58;38.00;;;35.78;;
33644;SDS011;19986;48.190;16.366;2022-10-19T16:21:29;38.55;;;36.25;;
33644;SDS011;19986;48.190;16.366;2022-10-19T16:23:56;38.88;;;36.55;;
33644;SDS011;19986;48.190;16.366;2022-10-19T16:26:22;34.97;;;32.95;;
33644;SDS011;19986;48.190;16.366;2022-10-19T16:28:50;37.58;;;35.58;;
33644;SDS011;19986;48.190;16.366;2022-10-19T16:31:17;36.95;;;34.55;;
33644;SDS011;19986;48.190;16.366;2022-10-19T16:33:44;37.05;;;34.83;;
33644;SDS011;19986;48.190;16.366;2022-10-19T16:36:10;35.53;;;33.22;;
33644;SDS011;19986;48.190;16.366;2022-10-19T16:38:37;35.67;;;33.75;;
33644;SDS011;19986;48.190;16.366;2022-10-19T16:41:07;36.20;;;34.10;;
33644;SDS011;19986;48.190;16.366;2022-10-19T16:43:34;36.55;;;34.42;;
33644;SDS011;19986;48.190;16.366;2022-10-19T16:46:01;37.05;;;34.83;;
33644;SDS011;19986;48.190;16.366;2022-10-19T16:48:27;36.08;;;33.80;;
33644;SDS011;19986;48.190;16.366;2022-10-19T16:53:34;37.03;;;34.80;;
33644;SDS011;19986;48.190;16.366;2022-10-19T16:56:04;36.80;;;34.72;;
33644;SDS011;19986;48.190;16.366;2022-10-19T16:58:36;37.33;;;35.22;;
33644;SDS011;19986;48.190;16.366;2022-10-19T17:01:10;35.58;;;33.53;;
33644;SDS011;19986;48.190;16.366;2022-10-19T17:03:40;36.28;;;34.03;;
33644;SDS011;19986;48.190;16.366;2022-10-19T17:06:07;35.50;;;33.00;;
33644;SDS011;19986;48.190;16.366;2022-10-19T17:08:33;37.47;;;35.38;;
33644;SDS011;19986;48.190;16.366;2022-10-19T17:13:36;35.50;;;33.15;;
33644;SDS011;19986;48.190;16.366;2022-10-19T17:16:03;34.78;;;32.78;;
33644;SDS011;19986;48.190;16.366;2022-10-19T17:18:30;40.13;;;35.75;;
33644;SDS011;19986;48.190;16.366;2022-10-19T17:21:00;116.28;;;39.88;;
33644;SDS011;19986;48.190;16.366;2022-10-19T17:23:31;40.70;;;35.25;;